createdAt,value
2023-08-09T00:00:33.701Z,100060.09
2023-08-09T00:03:01.796Z,100061.37
2023-08-09T00:05:29.504Z,100056.84
2023-08-09T00:07:56.831Z,100063.69
2023-08-09T00:10:24.509Z,100057.66
2023-08-09T00:12:52.431Z,100058.78
2023-08-09T00:15:19.815Z,100061.13
2023-08-09T00:17:47.750Z,100062.56
2023-08-09T00:20:16.060Z,100063.09
2023-08-09T00:22:44.079Z,100060.47
2023-08-09T00:25:14.965Z,100065.69
2023-08-09T00:27:43.525Z,100068.31
2023-08-09T00:30:11.685Z,100065.62
2023-08-09T00:32:40.439Z,100069.25
2023-08-09T00:35:08.460Z,100067.16
2023-08-09T00:37:36.887Z,100060.28
2023-08-09T00:40:13.914Z,100066.69
2023-08-09T00:42:42.460Z,100057.53
2023-08-09T00:45:10.650Z,100058.41
2023-08-09T00:47:38.539Z,100052.25
2023-08-09T00:50:06.620Z,100045.78
2023-08-09T00:52:34.438Z,100057.06
2023-08-09T00:55:02.324Z,100061.59
2023-08-09T00:57:31.503Z,100060.22
2023-08-09T00:59:59.526Z,100063.69
2023-08-09T01:02:27.218Z,100056.53
2023-08-09T01:04:54.827Z,100059.97
2023-08-09T01:07:32.561Z,100059.81
2023-08-09T01:10:16.744Z,100060.56
2023-08-09T01:12:51.348Z,100061.97
2023-08-09T01:15:21.089Z,100058.72
2023-08-09T01:17:50.019Z,100051.63
2023-08-09T01:20:18.360Z,100055.78
2023-08-09T01:22:52.035Z,100050.28
2023-08-09T01:25:20.086Z,100051.47
2023-08-09T01:27:50.130Z,100055.09
2023-08-09T01:30:17.621Z,100054.13
2023-08-09T01:32:45.425Z,100051.41
2023-08-09T01:35:13.125Z,100054.75
2023-08-09T01:37:48.357Z,100051.00
2023-08-09T01:40:17.300Z,100052.22
2023-08-09T01:42:44.990Z,100049.63
2023-08-09T01:45:13.409Z,100048.59
2023-08-09T01:47:43.008Z,100049.25
2023-08-09T01:50:22.019Z,100046.34
2023-08-09T01:52:50.179Z,100043.53
2023-08-09T01:55:19.329Z,100047.94
2023-08-09T01:57:48.149Z,100049.22
2023-08-09T02:00:20.515Z,100052.78
2023-08-09T02:02:49.830Z,100045.31
2023-08-09T02:05:17.893Z,100049.72
2023-08-09T02:07:45.355Z,100045.47
2023-08-09T02:10:13.558Z,100045.75
2023-08-09T02:12:41.728Z,100049.00
2023-08-09T02:15:09.906Z,100053.31
2023-08-09T02:17:37.926Z,100048.41
2023-08-09T02:20:08.048Z,100055.41
2023-08-09T02:22:38.820Z,100063.87
2023-08-09T02:25:08.293Z,100061.16
2023-08-09T02:27:35.841Z,100063.94
2023-08-09T02:30:04.684Z,100067.56
2023-08-09T02:32:35.259Z,100063.69
2023-08-09T02:35:03.865Z,100063.56
2023-08-09T02:37:31.843Z,100069.00
2023-08-09T02:40:00.475Z,100067.75
2023-08-09T02:42:28.011Z,100078.38
2023-08-09T02:44:55.774Z,100070.91
2023-08-09T02:47:23.335Z,100071.91
2023-08-09T02:49:51.307Z,100078.75
2023-08-09T02:52:20.466Z,100080.44
2023-08-09T02:54:48.872Z,100082.78
2023-08-09T02:57:16.624Z,100075.91
2023-08-09T02:59:44.418Z,100085.66
2023-08-09T03:02:11.906Z,100083.81
2023-08-09T03:04:39.561Z,100084.84
2023-08-09T03:07:07.261Z,100083.34
2023-08-09T03:09:36.038Z,100087.25
2023-08-09T03:12:03.883Z,100084.53
2023-08-09T03:14:31.655Z,100090.41
2023-08-09T03:16:59.143Z,100089.25
2023-08-09T03:19:27.069Z,100090.72
2023-08-09T03:21:54.782Z,100088.97
2023-08-09T03:24:22.287Z,100088.59
2023-08-09T03:26:49.863Z,100094.47
2023-08-09T03:29:17.741Z,100084.91
2023-08-09T03:31:46.050Z,100088.09
2023-08-09T03:34:13.739Z,100091.66
2023-08-09T03:36:41.510Z,100090.94
2023-08-09T03:39:09.283Z,100088.25
2023-08-09T03:41:36.726Z,100088.81
2023-08-09T03:44:05.354Z,100093.16
2023-08-09T03:46:33.024Z,100091.37
2023-08-09T03:49:02.256Z,100091.16
2023-08-09T03:51:30.845Z,100093.56
2023-08-09T03:53:58.532Z,100094.97
2023-08-09T03:56:26.080Z,100088.81
2023-08-09T03:58:53.871Z,100091.28
2023-08-09T04:01:21.532Z,100093.56
2023-08-09T04:03:49.378Z,100096.91
2023-08-09T04:06:16.809Z,100094.44
2023-08-09T04:08:45.242Z,100095.06
2023-08-09T04:11:13.055Z,100106.00
2023-08-09T04:13:42.455Z,100104.81
2023-08-09T04:16:10.902Z,100110.44
2023-08-09T04:18:39.197Z,100103.38
2023-08-09T04:21:08.024Z,100107.63
2023-08-09T04:23:35.503Z,100107.75
2023-08-09T04:26:04.674Z,100107.53
2023-08-09T04:28:32.193Z,100099.34
2023-08-09T04:30:59.629Z,100102.50
2023-08-09T04:33:28.185Z,100103.03
2023-08-09T04:35:55.594Z,100089.91
2023-08-09T04:38:23.078Z,100091.69
2023-08-09T04:40:50.801Z,100092.56
2023-08-09T04:43:18.477Z,100098.06
2023-08-09T04:45:45.993Z,100095.16
2023-08-09T04:48:18.383Z,100096.31
2023-08-09T04:50:45.992Z,100093.75
2023-08-09T04:53:13.708Z,100099.56
2023-08-09T04:55:41.190Z,100103.25
2023-08-09T04:58:09.389Z,100102.09
2023-08-09T05:00:37.186Z,100101.34
2023-08-09T05:03:06.177Z,100106.00
2023-08-09T05:05:33.686Z,100099.84
2023-08-09T05:08:01.430Z,100106.81
2023-08-09T05:10:28.861Z,100104.28
2023-08-09T05:12:56.554Z,100102.88
2023-08-09T05:15:24.344Z,100107.59
2023-08-09T05:17:51.803Z,100114.91
2023-08-09T05:20:19.285Z,100112.00
2023-08-09T05:22:47.014Z,100119.22
2023-08-09T05:25:14.484Z,100114.47
2023-08-09T05:27:41.965Z,100112.38
2023-08-09T05:30:10.125Z,100116.03
2023-08-09T05:32:37.642Z,100107.16
2023-08-09T05:35:05.576Z,100105.44
2023-08-09T05:37:33.397Z,100103.66
2023-08-09T05:40:00.795Z,100109.09
2023-08-09T05:42:28.247Z,100104.53
2023-08-09T05:44:56.010Z,100098.19
2023-08-09T05:47:23.610Z,100095.66
2023-08-09T05:49:51.426Z,100104.00
2023-08-09T05:52:19.158Z,100102.72
2023-08-09T05:54:49.438Z,100101.78
2023-08-09T05:57:17.149Z,100106.91
2023-08-09T05:59:44.920Z,100112.56
2023-08-09T06:02:12.376Z,100114.63
2023-08-09T06:04:40.151Z,100107.81
2023-08-09T06:07:08.336Z,100112.38
2023-08-09T06:09:35.785Z,100100.06
2023-08-09T06:12:06.887Z,100108.53
2023-08-09T06:14:35.015Z,100100.44
2023-08-09T06:17:03.347Z,100102.94
2023-08-09T06:19:31.241Z,100094.37
2023-08-09T06:21:58.935Z,100096.78
2023-08-09T06:24:26.635Z,100099.75
2023-08-09T06:26:55.589Z,100097.50
2023-08-09T06:29:23.101Z,100099.56
2023-08-09T06:31:51.641Z,100095.72
2023-08-09T06:34:19.360Z,100091.34
2023-08-09T06:36:46.864Z,100091.34
2023-08-09T06:39:14.603Z,100091.47
2023-08-09T06:41:42.080Z,100088.81
2023-08-09T06:44:09.520Z,100091.84
2023-08-09T06:46:38.604Z,100100.06
2023-08-09T06:49:06.097Z,100107.31
2023-08-09T06:51:33.550Z,100104.66
2023-08-09T06:54:01.220Z,100100.28
2023-08-09T06:56:28.901Z,100102.25
2023-08-09T06:58:56.702Z,100104.87
2023-08-09T07:01:24.433Z,100104.19
2023-08-09T07:03:52.069Z,100103.38
2023-08-09T07:06:19.836Z,100099.19
2023-08-09T07:08:47.608Z,100094.91
2023-08-09T07:11:15.879Z,100095.94
2023-08-09T07:13:43.337Z,100087.19
2023-08-09T07:16:11.019Z,100090.69
2023-08-09T07:18:38.692Z,100096.91
2023-08-09T07:21:06.214Z,100089.94
2023-08-09T07:23:47.292Z,100090.78
2023-08-09T07:26:21.330Z,100091.72
2023-08-09T07:28:49.093Z,100093.47
2023-08-09T07:31:21.837Z,100083.78
2023-08-09T07:33:50.231Z,100088.19
2023-08-09T07:36:18.221Z,100081.97
2023-08-09T07:38:45.677Z,100083.66
2023-08-09T07:41:13.801Z,100088.88
2023-08-09T07:43:41.254Z,100086.97
2023-08-09T07:46:08.795Z,100089.53
2023-08-09T07:48:36.559Z,100090.09
2023-08-09T07:51:04.256Z,100081.22
2023-08-09T07:53:31.976Z,100079.22
2023-08-09T07:55:59.708Z,100075.47
2023-08-09T07:58:27.183Z,100073.66
2023-08-09T08:00:54.636Z,100078.78
2023-08-09T08:03:22.328Z,100080.75
2023-08-09T08:05:51.242Z,100083.44
2023-08-09T08:08:21.220Z,100079.62
2023-08-09T08:10:49.007Z,100080.34
2023-08-09T08:13:16.823Z,100077.81
2023-08-09T08:15:44.732Z,100081.25
2023-08-09T08:18:12.900Z,100080.63
2023-08-09T08:20:40.304Z,100089.69
2023-08-09T08:23:07.872Z,100093.19
2023-08-09T08:25:35.681Z,100092.41
2023-08-09T08:28:03.289Z,100091.69
2023-08-09T08:30:30.860Z,100088.03
2023-08-09T08:32:58.654Z,100086.31
2023-08-09T08:35:34.998Z,100091.63
2023-08-09T08:38:03.684Z,100093.41
2023-08-09T08:40:32.437Z,100086.97
2023-08-09T08:43:00.457Z,100086.19
2023-08-09T08:45:28.229Z,100088.03
2023-08-09T08:47:55.674Z,100078.75
2023-08-09T08:50:26.401Z,100082.00
2023-08-09T08:52:54.690Z,100080.47
2023-08-09T08:55:23.255Z,100084.16
2023-08-09T08:57:50.689Z,100082.00
2023-08-09T09:02:49.272Z,100075.25
2023-08-09T09:05:17.990Z,100072.62
2023-08-09T09:07:47.763Z,100076.97
2023-08-09T09:10:15.262Z,100075.28
2023-08-09T09:12:43.157Z,100080.81
2023-08-09T09:15:11.037Z,100076.31
2023-08-09T09:17:43.303Z,100080.66
2023-08-09T09:20:40.765Z,100075.34
2023-08-09T09:23:09.164Z,100076.12
2023-08-09T09:25:36.921Z,100077.91
2023-08-09T09:28:04.659Z,100066.59
2023-08-09T09:30:33.504Z,100073.50
2023-08-09T09:33:04.435Z,100072.78
2023-08-09T09:35:33.608Z,100071.00
2023-08-09T09:38:05.224Z,100063.03
2023-08-09T09:40:36.198Z,100064.84
2023-08-09T09:43:05.721Z,100064.63
2023-08-09T09:45:34.294Z,100057.47
2023-08-09T09:48:03.320Z,100058.97
2023-08-09T09:50:33.111Z,100059.69
2023-08-09T09:53:01.075Z,100071.03
2023-08-09T09:55:30.128Z,100058.50
2023-08-09T09:57:59.290Z,100055.62
2023-08-09T10:00:28.902Z,100064.63
2023-08-09T10:02:57.852Z,100062.03
2023-08-09T10:05:44.722Z,100060.87
2023-08-09T10:08:15.295Z,100055.91
2023-08-09T10:10:44.953Z,100052.44
2023-08-09T10:13:17.277Z,100044.50
2023-08-09T10:15:48.501Z,100041.75
2023-08-09T10:18:30.384Z,100044.00
2023-08-09T10:20:59.751Z,100042.81
2023-08-09T10:23:30.218Z,100043.16
2023-08-09T10:25:58.141Z,100039.25
2023-08-09T10:28:45.675Z,100044.00
2023-08-09T10:31:19.278Z,100035.00
2023-08-09T10:34:11.692Z,100038.62
2023-08-09T10:36:39.476Z,100041.16
2023-08-09T10:39:15.754Z,100037.06
2023-08-09T10:42:06.467Z,100035.47
2023-08-09T10:44:34.296Z,100034.63
2023-08-09T10:47:04.922Z,100039.63
2023-08-09T10:49:45.965Z,100037.84
2023-08-09T10:52:19.239Z,100041.97
2023-08-09T10:55:27.550Z,100034.13
2023-08-09T10:57:57.219Z,100034.34
2023-08-09T11:00:25.939Z,100034.41
2023-08-09T11:02:58.174Z,100025.41
2023-08-09T11:05:28.563Z,100034.50
2023-08-09T11:07:58.202Z,100037.84
2023-08-09T11:10:38.878Z,100027.19
2023-08-09T11:13:10.589Z,100031.25
2023-08-09T11:15:39.182Z,100028.44
2023-08-09T11:18:07.451Z,100027.47
2023-08-09T11:20:35.592Z,100021.75
2023-08-09T11:23:04.807Z,100032.69
2023-08-09T11:25:33.474Z,100028.56
2023-08-09T11:28:04.974Z,100022.72
2023-08-09T11:30:33.953Z,100025.19
2023-08-09T11:33:06.713Z,100030.94
2023-08-09T11:35:46.487Z,100023.59
2023-08-09T11:38:16.577Z,100022.47
2023-08-09T11:40:52.925Z,100023.69
2023-08-09T11:43:21.877Z,100017.88
2023-08-09T11:45:56.529Z,100023.00
2023-08-09T11:48:32.804Z,100016.37
2023-08-09T11:51:23.850Z,100017.25
2023-08-09T11:53:51.976Z,100021.28
2023-08-09T11:56:21.391Z,100026.44
2023-08-09T11:58:57.014Z,100024.09
2023-08-09T12:01:29.482Z,100026.59
2023-08-09T12:03:59.511Z,100021.06
2023-08-09T12:06:43.844Z,100019.59
2023-08-09T12:09:27.920Z,100024.94
2023-08-09T12:11:55.653Z,100024.41
2023-08-09T12:14:23.789Z,100019.22
2023-08-09T12:16:51.333Z,100025.66
2023-08-09T12:19:18.794Z,100021.44
2023-08-09T12:21:46.550Z,100021.06
2023-08-09T12:24:15.002Z,100014.00
2023-08-09T12:26:43.040Z,100024.94
2023-08-09T12:29:11.033Z,100023.72
2023-08-09T12:31:39.406Z,100020.50
2023-08-09T12:34:09.363Z,100022.84
2023-08-09T12:36:37.115Z,100019.06
2023-08-09T12:39:05.162Z,100025.56
2023-08-09T12:41:32.586Z,100027.50
2023-08-09T12:44:00.262Z,100021.56
2023-08-09T12:46:28.052Z,100020.66
2023-08-09T12:48:55.582Z,100030.75
2023-08-09T12:51:23.568Z,100012.78
2023-08-09T12:53:51.050Z,100015.72
2023-08-09T12:56:18.775Z,100015.47
2023-08-09T12:58:46.588Z,100017.81
2023-08-09T13:01:15.469Z,100009.03
2023-08-09T13:03:42.989Z,100004.66
2023-08-09T13:06:11.528Z,100002.91
2023-08-09T13:08:38.986Z,99998.09
2023-08-09T13:11:06.612Z,100003.75
2023-08-09T13:13:34.440Z,99998.44
2023-08-09T13:16:03.343Z,99993.37
2023-08-09T13:18:31.284Z,99993.22
2023-08-09T13:20:59.396Z,99987.44
2023-08-09T13:23:26.829Z,99987.44
2023-08-09T13:25:55.124Z,99987.50
2023-08-09T13:28:23.081Z,99978.97
2023-08-09T13:30:50.626Z,99982.28
2023-08-09T13:33:18.309Z,99989.00
2023-08-09T13:35:46.622Z,99980.59
2023-08-09T13:38:32.932Z,99981.09
2023-08-09T13:41:00.982Z,99983.16
2023-08-09T13:43:28.678Z,99985.69
2023-08-09T13:45:56.193Z,99983.94
2023-08-09T13:48:24.149Z,99975.47
2023-08-09T13:50:51.921Z,99977.44
2023-08-09T13:53:19.650Z,99976.66
2023-08-09T13:55:47.721Z,99970.25
2023-08-09T13:58:16.560Z,99961.78
2023-08-09T14:00:44.058Z,99957.69
2023-08-09T14:03:12.526Z,99954.13
2023-08-09T14:05:40.154Z,99942.53
2023-08-09T14:08:08.789Z,99944.53
2023-08-09T14:10:36.524Z,99951.25
2023-08-09T14:13:04.110Z,99942.47
2023-08-09T14:15:31.931Z,99940.03
2023-08-09T14:18:00.099Z,99940.59
2023-08-09T14:20:27.845Z,99943.28
2023-08-09T14:22:55.431Z,99947.31
2023-08-09T14:25:27.236Z,99948.47
2023-08-09T14:27:54.794Z,99960.19
2023-08-09T14:30:22.577Z,99961.31
2023-08-09T14:32:51.015Z,99967.50
2023-08-09T14:35:21.338Z,99976.28
2023-08-09T14:37:49.310Z,99976.81
2023-08-09T14:40:17.219Z,99980.19
2023-08-09T14:42:45.169Z,99974.22
2023-08-09T14:45:13.237Z,99980.72
2023-08-09T14:47:41.696Z,99970.97
2023-08-09T14:50:10.101Z,99969.41
2023-08-09T14:52:38.434Z,99969.50
2023-08-09T14:55:08.985Z,99975.19
2023-08-09T14:57:37.756Z,99966.16
2023-08-09T15:00:11.052Z,99971.66
2023-08-09T15:02:41.121Z,99969.47
2023-08-09T15:05:10.601Z,99969.06
2023-08-09T15:07:38.318Z,99972.25
2023-08-09T15:10:07.341Z,99969.63
2023-08-09T15:12:35.992Z,99965.88
2023-08-09T15:15:05.651Z,99971.41
2023-08-09T15:17:34.809Z,99968.28
2023-08-09T15:20:03.529Z,99967.00
2023-08-09T15:22:31.140Z,99968.59
2023-08-09T15:25:00.945Z,99961.78
2023-08-09T15:27:28.905Z,99972.16
2023-08-09T15:29:57.363Z,99971.31
2023-08-09T15:32:25.268Z,99969.06
2023-08-09T15:34:53.151Z,99966.41
2023-08-09T15:37:20.796Z,99972.34
2023-08-09T15:39:48.713Z,99973.34
2023-08-09T15:42:18.765Z,99971.72
2023-08-09T15:44:49.410Z,99975.75
2023-08-09T15:47:19.772Z,99972.75
2023-08-09T15:49:48.925Z,99974.81
2023-08-09T15:52:19.465Z,99976.47
2023-08-09T15:54:47.319Z,99974.09
2023-08-09T15:57:15.567Z,99977.63
2023-08-09T15:59:46.790Z,99975.19
2023-08-09T16:02:15.388Z,99974.94
2023-08-09T16:04:43.825Z,99975.19
2023-08-09T16:07:13.141Z,99968.56
2023-08-09T16:09:41.334Z,99978.97
2023-08-09T16:12:11.913Z,99973.88
2023-08-09T16:14:40.398Z,99969.09
2023-08-09T16:17:09.117Z,99972.16
2023-08-09T16:19:37.952Z,99970.56
2023-08-09T16:22:06.165Z,99975.09
2023-08-09T16:24:33.949Z,99969.19
2023-08-09T16:27:02.529Z,99977.00
2023-08-09T16:29:30.275Z,99973.56
2023-08-09T16:31:57.804Z,99973.75
2023-08-09T16:34:25.782Z,99969.34
2023-08-09T16:36:53.443Z,99972.81
2023-08-09T16:39:21.431Z,99967.75
2023-08-09T16:41:49.192Z,99972.19
2023-08-09T16:44:16.675Z,99971.41
2023-08-09T16:46:44.414Z,99972.09
2023-08-09T16:49:12.378Z,99970.31
2023-08-09T16:51:39.922Z,99984.16
2023-08-09T16:54:08.102Z,99984.72
2023-08-09T16:56:36.677Z,99989.34
2023-08-09T16:59:04.577Z,99982.62
2023-08-09T17:01:32.483Z,99999.13
2023-08-09T17:04:00.491Z,99999.25
2023-08-09T17:06:29.018Z,100012.41
2023-08-09T17:08:56.741Z,100005.28
2023-08-09T17:11:25.224Z,100007.13
2023-08-09T17:13:54.451Z,100012.72
2023-08-09T17:16:22.273Z,100011.97
2023-08-09T17:18:51.310Z,100007.69
2023-08-09T17:21:19.565Z,100005.81
2023-08-09T17:23:48.217Z,100012.09
2023-08-09T17:26:16.376Z,100001.59
2023-08-09T17:28:44.348Z,100007.81
2023-08-09T17:31:12.798Z,100010.41
2023-08-09T17:33:41.605Z,100007.09
2023-08-09T17:36:12.652Z,100015.81
2023-08-09T17:38:42.639Z,100027.34
2023-08-09T17:41:10.754Z,100022.00
2023-08-09T17:43:40.385Z,100025.59
2023-08-09T17:46:08.583Z,100028.16
2023-08-09T17:48:36.789Z,100030.00
2023-08-09T17:51:06.661Z,100032.56
2023-08-09T17:53:35.905Z,100023.94
2023-08-09T17:56:04.828Z,100025.66
2023-08-09T17:58:32.549Z,100016.81
2023-08-09T18:01:00.879Z,100018.59
2023-08-09T18:03:28.821Z,100025.66
2023-08-09T18:05:56.940Z,100029.16
2023-08-09T18:08:26.506Z,100045.94
2023-08-09T18:10:56.874Z,100042.41
2023-08-09T18:13:25.328Z,100049.41
2023-08-09T18:15:53.288Z,100053.87
2023-08-09T18:18:22.296Z,100055.59
2023-08-09T18:20:51.710Z,100058.19
2023-08-09T18:23:25.912Z,100052.09
2023-08-09T18:25:57.431Z,100057.37
2023-08-09T18:28:26.631Z,100053.87
2023-08-09T18:30:54.354Z,100053.87
2023-08-09T18:33:23.378Z,100059.16
2023-08-09T18:35:53.599Z,100060.03
2023-08-09T18:38:23.363Z,100065.31
2023-08-09T18:40:53.434Z,100055.59
2023-08-09T18:43:23.152Z,100069.72
2023-08-09T18:45:51.557Z,100061.81
2023-08-09T18:48:19.902Z,100067.06
2023-08-09T18:50:49.310Z,100072.34
2023-08-09T18:53:18.785Z,100071.47
2023-08-09T18:55:48.244Z,100081.16
2023-08-09T18:58:17.240Z,100076.75
2023-08-09T19:00:46.327Z,100076.78
2023-08-09T19:03:14.617Z,100069.69
2023-08-09T19:05:44.077Z,100081.16
2023-08-09T19:08:12.732Z,100078.53
2023-08-09T19:10:43.159Z,100080.25
2023-08-09T19:13:11.684Z,100082.94
2023-08-09T19:15:41.272Z,100094.34
2023-08-09T19:18:09.409Z,100092.56
2023-08-09T19:20:37.761Z,100090.84
2023-08-09T19:23:07.542Z,100097.84
2023-08-09T19:25:36.246Z,100091.59
2023-08-09T19:28:05.879Z,100094.19
2023-08-09T19:30:35.712Z,100095.16
2023-08-09T19:33:05.092Z,100101.28
2023-08-09T19:35:35.436Z,100108.34
2023-08-09T19:38:05.554Z,100103.00
2023-08-09T19:40:34.098Z,100104.69
2023-08-09T19:43:02.906Z,100103.84
2023-08-09T19:45:31.424Z,100101.25
2023-08-09T19:48:01.490Z,100110.09
2023-08-09T19:50:29.913Z,100111.91
2023-08-09T19:52:58.093Z,100115.37
2023-08-09T19:55:26.442Z,100113.59
2023-08-09T19:57:54.760Z,100108.31
2023-08-09T20:00:28.715Z,100116.31
2023-08-09T20:02:57.352Z,100114.44
2023-08-09T20:05:26.104Z,100117.97
2023-08-09T20:07:54.955Z,100118.72
2023-08-09T20:10:23.372Z,100113.38
2023-08-09T20:12:51.592Z,100121.34
2023-08-09T20:15:21.176Z,100112.50
2023-08-09T20:17:49.480Z,100116.13
2023-08-09T20:20:24.292Z,100122.03
2023-08-09T20:22:54.096Z,100115.25
2023-08-09T20:25:22.975Z,100119.50
2023-08-09T20:27:52.425Z,100111.63
2023-08-09T20:30:20.923Z,100117.78
2023-08-09T20:32:49.021Z,100123.91
2023-08-09T20:35:17.014Z,100115.22
2023-08-09T20:37:44.688Z,100122.25
2023-08-09T20:40:13.122Z,100113.50
2023-08-09T20:42:42.251Z,100108.22
2023-08-09T20:45:11.460Z,100111.72
2023-08-09T20:47:41.344Z,100121.25
2023-08-09T20:50:09.623Z,100118.75
2023-08-09T20:52:39.536Z,100124.00
2023-08-09T20:55:08.501Z,100118.69
2023-08-09T20:57:36.303Z,100131.75
2023-08-09T21:00:05.663Z,100130.88
2023-08-09T21:02:33.420Z,100137.09
2023-08-09T21:05:00.834Z,100141.34
2023-08-09T21:07:28.253Z,100142.37
2023-08-09T21:09:56.422Z,100144.03
2023-08-09T21:12:23.801Z,100144.94
2023-08-09T21:14:51.235Z,100140.41
2023-08-09T21:17:18.860Z,100136.16
2023-08-09T21:19:46.273Z,100141.19
2023-08-09T21:22:15.306Z,100141.22
2023-08-09T21:27:31.760Z,100141.34
2023-08-09T21:30:00.700Z,100136.25
2023-08-09T21:32:28.322Z,100134.53
2023-08-09T21:34:55.792Z,100141.47
2023-08-09T21:37:23.564Z,100137.09
2023-08-09T21:39:51.131Z,100127.47
2023-08-09T21:42:18.591Z,100139.78
2023-08-09T21:44:46.377Z,100142.41
2023-08-09T21:47:13.811Z,100150.28
2023-08-09T21:49:44.549Z,100151.88
2023-08-09T21:52:12.242Z,100147.66
2023-08-09T21:54:39.661Z,100150.38
2023-08-09T21:57:07.132Z,100158.16
2023-08-09T21:59:34.869Z,100159.09
2023-08-09T22:02:17.885Z,100153.97
2023-08-09T22:04:54.491Z,100162.53
2023-08-09T22:07:21.929Z,100158.97
2023-08-09T22:09:49.336Z,100168.28
2023-08-09T22:12:17.003Z,100169.56
2023-08-09T22:14:44.386Z,100167.72
2023-08-09T22:17:11.908Z,100168.78
2023-08-09T22:19:39.700Z,100175.50
2023-08-09T22:24:37.462Z,100161.44
2023-08-09T22:27:05.175Z,100163.31
2023-08-09T22:29:32.720Z,100168.47
2023-08-09T22:32:00.544Z,100166.78
2023-08-09T22:34:28.277Z,100165.81
2023-08-09T22:36:56.156Z,100173.72
2023-08-09T22:39:23.827Z,100168.53
2023-08-09T22:41:51.624Z,100169.37
2023-08-09T22:44:19.001Z,100165.78
2023-08-09T22:46:46.616Z,100165.06
2023-08-09T22:49:14.367Z,100166.78
2023-08-09T22:51:43.076Z,100169.34
2023-08-09T22:54:10.924Z,100174.59
2023-08-09T22:56:38.670Z,100165.00
2023-08-09T22:59:06.355Z,100167.50
2023-08-09T23:01:34.934Z,100174.38
2023-08-09T23:04:03.134Z,100169.03
2023-08-09T23:06:30.579Z,100168.34
2023-08-09T23:08:58.089Z,100164.66
2023-08-09T23:11:26.224Z,100170.13
2023-08-09T23:13:53.632Z,100167.34
2023-08-09T23:16:21.007Z,100160.28
2023-08-09T23:18:48.877Z,100160.88
2023-08-09T23:21:16.370Z,100165.25
2023-08-09T23:23:43.786Z,100160.47
2023-08-09T23:26:12.634Z,100156.69
2023-08-09T23:28:40.062Z,100158.44
2023-08-09T23:31:07.500Z,100164.50
2023-08-09T23:33:35.317Z,100163.91
2023-08-09T23:36:03.849Z,100165.78
2023-08-09T23:38:31.228Z,100163.09
2023-08-09T23:40:58.999Z,100163.88
2023-08-09T23:43:26.410Z,100163.00
2023-08-09T23:45:53.825Z,100158.56
2023-08-09T23:48:21.480Z,100170.75
2023-08-09T23:50:49.244Z,100163.53
2023-08-09T23:53:16.681Z,100167.44
2023-08-09T23:55:44.355Z,100162.84
2023-08-09T23:58:11.750Z,100158.97
